sensor_id;sensor_type;location;lat;lon;timestamp;temperature;humidity
2363;DHT22;64265;51.664;7.626;2023-02-01T00:00:32;19.20;67.30
2363;DHT22;64265;51.664;7.626;2023-02-01T00:03:00;19.20;67.30
2363;DHT22;64265;51.664;7.626;2023-02-01T00:05:26;19.20;67.30
2363;DHT22;64265;51.664;7.626;2023-02-01T00:07:53;19.20;67.30
2363;DHT22;64265;51.664;7.626;2023-02-01T00:10:20;19.20;67.40
2363;DHT22;64265;51.664;7.626;2023-02-01T00:12:48;19.20;67.40
2363;DHT22;64265;51.664;7.626;2023-02-01T00:15:15;19.20;67.40
2363;DHT22;64265;51.664;7.626;2023-02-01T00:17:42;19.20;67.40
2363;DHT22;64265;51.664;7.626;2023-02-01T00:20:10;19.10;67.30
2363;DHT22;64265;51.664;7.626;2023-02-01T00:22:36;19.10;67.30
2363;DHT22;64265;51.664;7.626;2023-02-01T00:25:04;19.10;67.40
2363;DHT22;64265;51.664;7.626;2023-02-01T00:27:31;19.10;67.30
2363;DHT22;64265;51.664;7.626;2023-02-01T00:29:59;19.10;67.30
2363;DHT22;64265;51.664;7.626;2023-02-01T00:32:25;19.10;67.40
2363;DHT22;64265;51.664;7.626;2023-02-01T00:34:52;19.10;67.40
2363;DHT22;64265;51.664;7.626;2023-02-01T00:37:19;19.00;67.30
2363;DHT22;64265;51.664;7.626;2023-02-01T00:39:45;19.00;67.30
2363;DHT22;64265;51.664;7.626;2023-02-01T00:42:12;19.00;67.30
2363;DHT22;64265;51.664;7.626;2023-02-01T00:44:39;19.00;67.30
2363;DHT22;64265;51.664;7.626;2023-02-01T00:47:07;19.00;67.40
2363;DHT22;64265;51.664;7.626;2023-02-01T00:49:34;19.00;67.40
2363;DHT22;64265;51.664;7.626;2023-02-01T00:52:00;19.00;67.40
2363;DHT22;64265;51.664;7.626;2023-02-01T00:54:27;19.00;67.40
2363;DHT22;64265;51.664;7.626;2023-02-01T00:56:54;18.90;67.30
2363;DHT22;64265;51.664;7.626;2023-02-01T00:59:20;18.90;67.30
2363;DHT22;64265;51.664;7.626;2023-02-01T01:01:47;18.90;67.30
2363;DHT22;64265;51.664;7.626;2023-02-01T01:04:15;18.90;67.30
2363;DHT22;64265;51.664;7.626;2023-02-01T01:06:42;18.90;67.30
2363;DHT22;64265;51.664;7.626;2023-02-01T01:09:09;18.90;67.40
2363;DHT22;64265;51.664;7.626;2023-02-01T01:11:38;18.90;67.30
2363;DHT22;64265;51.664;7.626;2023-02-01T01:14:06;18.90;67.50
2363;DHT22;64265;51.664;7.626;2023-02-01T01:16:33;18.80;67.30
2363;DHT22;64265;51.664;7.626;2023-02-01T01:19:00;18.80;67.30
2363;DHT22;64265;51.664;7.626;2023-02-01T01:21:29;18.80;67.30
2363;DHT22;64265;51.664;7.626;2023-02-01T01:23:56;18.80;67.30
2363;DHT22;64265;51.664;7.626;2023-02-01T01:26:24;18.80;67.30
2363;DHT22;64265;51.664;7.626;2023-02-01T01:28:51;18.80;67.30
2363;DHT22;64265;51.664;7.626;2023-02-01T01:31:19;18.80;67.30
2363;DHT22;64265;51.664;7.626;2023-02-01T01:33:50;18.80;67.30
2363;DHT22;64265;51.664;7.626;2023-02-01T01:36:17;18.80;67.30
2363;DHT22;64265;51.664;7.626;2023-02-01T01:38:45;18.80;68.10
2363;DHT22;64265;51.664;7.626;2023-02-01T01:41:15;18.70;67.30
2363;DHT22;64265;51.664;7.626;2023-02-01T01:43:51;18.80;67.40
2363;DHT22;64265;51.664;7.626;2023-02-01T01:46:20;18.70;67.30
2363;DHT22;64265;51.664;7.626;2023-02-01T01:48:51;18.70;67.30
2363;DHT22;64265;51.664;7.626;2023-02-01T01:51:21;18.70;67.30
2363;DHT22;64265;51.664;7.626;2023-02-01T01:53:57;18.70;67.30
2363;DHT22;64265;51.664;7.626;2023-02-01T01:56:26;18.70;67.30
2363;DHT22;64265;51.664;7.626;2023-02-01T01:58:53;18.60;67.30
2363;DHT22;64265;51.664;7.626;2023-02-01T02:01:20;18.70;67.30
2363;DHT22;64265;51.664;7.626;2023-02-01T02:03:47;18.70;67.30
2363;DHT22;64265;51.664;7.626;2023-02-01T02:06:20;18.70;67.40
2363;DHT22;64265;51.664;7.626;2023-02-01T02:08:48;18.60;67.30
2363;DHT22;64265;51.664;7.626;2023-02-01T02:11:17;18.60;67.30
2363;DHT22;64265;51.664;7.626;2023-02-01T02:13:48;18.60;67.30
2363;DHT22;64265;51.664;7.626;2023-02-01T02:16:27;18.60;67.30
2363;DHT22;64265;51.664;7.626;2023-02-01T02:21:56;18.60;67.40
2363;DHT22;64265;51.664;7.626;2023-02-01T02:24:43;18.50;67.20
2363;DHT22;64265;51.664;7.626;2023-02-01T02:27:22;18.50;67.30
2363;DHT22;64265;51.664;7.626;2023-02-01T02:30:22;18.60;67.30
2363;DHT22;64265;51.664;7.626;2023-02-01T02:33:19;18.50;67.20
2363;DHT22;64265;51.664;7.626;2023-02-01T02:35:58;18.50;67.30
2363;DHT22;64265;51.664;7.626;2023-02-01T02:38:31;18.50;67.30
2363;DHT22;64265;51.664;7.626;2023-02-01T02:41:07;18.50;67.30
2363;DHT22;64265;51.664;7.626;2023-02-01T02:43:41;18.50;67.30
2363;DHT22;64265;51.664;7.626;2023-02-01T02:46:34;18.50;68.10
2363;DHT22;64265;51.664;7.626;2023-02-01T02:49:25;18.40;67.10
2363;DHT22;64265;51.664;7.626;2023-02-01T02:51:57;18.50;67.30
2363;DHT22;64265;51.664;7.626;2023-02-01T02:54:46;18.40;67.10
2363;DHT22;64265;51.664;7.626;2023-02-01T02:57:17;18.40;67.20
2363;DHT22;64265;51.664;7.626;2023-02-01T03:00:06;18.40;67.20
2363;DHT22;64265;51.664;7.626;2023-02-01T03:02:52;18.40;67.20
2363;DHT22;64265;51.664;7.626;2023-02-01T03:05:41;18.40;67.10
2363;DHT22;64265;51.664;7.626;2023-02-01T03:08:13;18.40;67.20
2363;DHT22;64265;51.664;7.626;2023-02-01T03:10:50;18.40;67.20
2363;DHT22;64265;51.664;7.626;2023-02-01T03:13:26;18.40;67.30
2363;DHT22;64265;51.664;7.626;2023-02-01T03:15:58;18.30;67.10
2363;DHT22;64265;51.664;7.626;2023-02-01T03:18:32;18.40;67.20
2363;DHT22;64265;51.664;7.626;2023-02-01T03:21:02;18.30;67.10
2363;DHT22;64265;51.664;7.626;2023-02-01T03:23:32;18.30;67.10
2363;DHT22;64265;51.664;7.626;2023-02-01T03:26:01;18.30;67.90
2363;DHT22;64265;51.664;7.626;2023-02-01T03:28:31;18.30;67.10
2363;DHT22;64265;51.664;7.626;2023-02-01T03:30:59;18.30;67.10
2363;DHT22;64265;51.664;7.626;2023-02-01T03:33:27;18.30;67.10
2363;DHT22;64265;51.664;7.626;2023-02-01T03:36:03;18.30;67.10
2363;DHT22;64265;51.664;7.626;2023-02-01T03:38:34;18.30;67.20
2363;DHT22;64265;51.664;7.626;2023-02-01T03:41:10;18.30;67.20
2363;DHT22;64265;51.664;7.626;2023-02-01T03:43:44;18.30;67.20
2363;DHT22;64265;51.664;7.626;2023-02-01T03:46:18;18.20;67.00
2363;DHT22;64265;51.664;7.626;2023-02-01T03:48:48;18.20;67.00
2363;DHT22;64265;51.664;7.626;2023-02-01T03:51:17;18.20;67.10
2363;DHT22;64265;51.664;7.626;2023-02-01T03:53:46;18.20;67.00
2363;DHT22;64265;51.664;7.626;2023-02-01T03:56:15;18.20;67.00
2363;DHT22;64265;51.664;7.626;2023-02-01T03:58:42;18.20;67.10
2363;DHT22;64265;51.664;7.626;2023-02-01T04:01:23;18.20;67.00
2363;DHT22;64265;51.664;7.626;2023-02-01T04:03:50;18.20;67.00
2363;DHT22;64265;51.664;7.626;2023-02-01T04:06:18;18.20;67.00
2363;DHT22;64265;51.664;7.626;2023-02-01T04:08:45;18.20;67.00
2363;DHT22;64265;51.664;7.626;2023-02-01T04:11:12;18.10;66.90
2363;DHT22;64265;51.664;7.626;2023-02-01T04:13:38;18.10;66.90
2363;DHT22;64265;51.664;7.626;2023-02-01T04:16:05;18.20;67.10
2363;DHT22;64265;51.664;7.626;2023-02-01T04:18:32;18.10;66.90
2363;DHT22;64265;51.664;7.626;2023-02-01T04:21:00;18.10;67.00
2363;DHT22;64265;51.664;7.626;2023-02-01T04:23:28;18.10;67.00
2363;DHT22;64265;51.664;7.626;2023-02-01T04:25:59;18.10;66.90
2363;DHT22;64265;51.664;7.626;2023-02-01T04:28:25;18.10;67.00
2363;DHT22;64265;51.664;7.626;2023-02-01T04:30:52;18.10;66.90
2363;DHT22;64265;51.664;7.626;2023-02-01T04:33:19;18.10;66.90
2363;DHT22;64265;51.664;7.626;2023-02-01T04:35:45;18.00;66.80
2363;DHT22;64265;51.664;7.626;2023-02-01T04:38:13;18.00;66.80
2363;DHT22;64265;51.664;7.626;2023-02-01T04:40:41;18.00;66.80
2363;DHT22;64265;51.664;7.626;2023-02-01T04:43:08;18.00;66.80
2363;DHT22;64265;51.664;7.626;2023-02-01T04:45:34;18.00;66.80
2363;DHT22;64265;51.664;7.626;2023-02-01T04:48:01;18.00;66.80
2363;DHT22;64265;51.664;7.626;2023-02-01T04:50:28;18.00;66.80
2363;DHT22;64265;51.664;7.626;2023-02-01T04:52:55;18.00;66.80
2363;DHT22;64265;51.664;7.626;2023-02-01T04:55:21;18.00;66.80
2363;DHT22;64265;51.664;7.626;2023-02-01T04:57:49;18.00;66.80
2363;DHT22;64265;51.664;7.626;2023-02-01T05:00:17;18.00;66.80
2363;DHT22;64265;51.664;7.626;2023-02-01T05:02:44;18.00;66.80
2363;DHT22;64265;51.664;7.626;2023-02-01T05:05:10;18.00;66.80
2363;DHT22;64265;51.664;7.626;2023-02-01T05:07:37;18.00;66.80
2363;DHT22;64265;51.664;7.626;2023-02-01T05:10:04;18.00;66.80
2363;DHT22;64265;51.664;7.626;2023-02-01T05:12:31;17.90;66.60
2363;DHT22;64265;51.664;7.626;2023-02-01T05:15:16;17.90;66.70
2363;DHT22;64265;51.664;7.626;2023-02-01T05:17:43;18.00;66.80
2363;DHT22;64265;51.664;7.626;2023-02-01T05:20:10;17.90;66.60
2363;DHT22;64265;51.664;7.626;2023-02-01T05:22:37;17.90;66.70
2363;DHT22;64265;51.664;7.626;2023-02-01T05:25:05;17.90;66.60
2363;DHT22;64265;51.664;7.626;2023-02-01T05:27:31;17.90;66.70
2363;DHT22;64265;51.664;7.626;2023-02-01T05:29:58;17.90;66.60
2363;DHT22;64265;51.664;7.626;2023-02-01T05:32:26;17.90;66.60
2363;DHT22;64265;51.664;7.626;2023-02-01T05:34:53;17.90;66.60
2363;DHT22;64265;51.664;7.626;2023-02-01T05:37:19;17.90;67.40
2363;DHT22;64265;51.664;7.626;2023-02-01T05:39:46;17.90;66.60
2363;DHT22;64265;51.664;7.626;2023-02-01T05:42:13;17.90;66.60
2363;DHT22;64265;51.664;7.626;2023-02-01T05:44:40;17.90;66.60
2363;DHT22;64265;51.664;7.626;2023-02-01T05:47:06;17.80;66.40
2363;DHT22;64265;51.664;7.626;2023-02-01T05:49:34;17.90;66.60
2363;DHT22;64265;51.664;7.626;2023-02-01T05:52:01;17.80;66.40
2363;DHT22;64265;51.664;7.626;2023-02-01T05:54:28;17.80;66.40
2363;DHT22;64265;51.664;7.626;2023-02-01T05:56:55;17.80;66.50
2363;DHT22;64265;51.664;7.626;2023-02-01T05:59:22;17.80;66.50
2363;DHT22;64265;51.664;7.626;2023-02-01T06:01:49;17.80;66.40
2363;DHT22;64265;51.664;7.626;2023-02-01T06:04:15;17.80;66.40
2363;DHT22;64265;51.664;7.626;2023-02-01T06:06:43;17.80;66.40
2363;DHT22;64265;51.664;7.626;2023-02-01T06:09:10;17.80;66.40
2363;DHT22;64265;51.664;7.626;2023-02-01T06:11:37;17.80;66.40
2363;DHT22;64265;51.664;7.626;2023-02-01T06:14:04;17.80;66.40
2363;DHT22;64265;51.664;7.626;2023-02-01T06:16:33;17.80;66.40
2363;DHT22;64265;51.664;7.626;2023-02-01T06:18:59;17.70;66.30
2363;DHT22;64265;51.664;7.626;2023-02-01T06:21:26;17.80;66.40
2363;DHT22;64265;51.664;7.626;2023-02-01T06:23:54;17.70;66.30
2363;DHT22;64265;51.664;7.626;2023-02-01T06:26:22;17.70;66.30
2363;DHT22;64265;51.664;7.626;2023-02-01T06:28:49;17.70;66.30
2363;DHT22;64265;51.664;7.626;2023-02-01T06:31:16;17.70;66.30
2363;DHT22;64265;51.664;7.626;2023-02-01T06:33:43;17.70;66.30
2363;DHT22;64265;51.664;7.626;2023-02-01T06:36:12;17.70;66.30
2363;DHT22;64265;51.664;7.626;2023-02-01T06:38:41;17.70;66.30
2363;DHT22;64265;51.664;7.626;2023-02-01T06:41:09;17.70;66.20
2363;DHT22;64265;51.664;7.626;2023-02-01T06:43:36;17.70;66.20
2363;DHT22;64265;51.664;7.626;2023-02-01T06:46:04;17.80;66.20
2363;DHT22;64265;51.664;7.626;2023-02-01T06:48:32;17.80;66.10
2363;DHT22;64265;51.664;7.626;2023-02-01T06:50:59;17.80;65.90
2363;DHT22;64265;51.664;7.626;2023-02-01T06:53:26;17.90;65.90
2363;DHT22;64265;51.664;7.626;2023-02-01T06:55:54;17.90;65.70
2363;DHT22;64265;51.664;7.626;2023-02-01T06:58:22;17.90;65.60
2363;DHT22;64265;51.664;7.626;2023-02-01T07:00:49;18.00;65.70
2363;DHT22;64265;51.664;7.626;2023-02-01T07:03:19;18.00;65.70
2363;DHT22;64265;51.664;7.626;2023-02-01T07:05:46;18.00;65.80
2363;DHT22;64265;51.664;7.626;2023-02-01T07:08:13;18.00;65.80
2363;DHT22;64265;51.664;7.626;2023-02-01T07:10:39;18.10;66.00
2363;DHT22;64265;51.664;7.626;2023-02-01T07:13:06;18.10;66.00
2363;DHT22;64265;51.664;7.626;2023-02-01T07:15:34;18.10;66.10
2363;DHT22;64265;51.664;7.626;2023-02-01T07:18:01;18.20;66.30
2363;DHT22;64265;51.664;7.626;2023-02-01T07:20:28;18.20;66.30
2363;DHT22;64265;51.664;7.626;2023-02-01T07:22:55;18.20;66.40
2363;DHT22;64265;51.664;7.626;2023-02-01T07:25:23;18.20;66.50
2363;DHT22;64265;51.664;7.626;2023-02-01T07:27:49;18.20;66.50
2363;DHT22;64265;51.664;7.626;2023-02-01T07:30:17;18.30;66.60
2363;DHT22;64265;51.664;7.626;2023-02-01T07:32:45;18.30;66.60
2363;DHT22;64265;51.664;7.626;2023-02-01T07:35:12;18.30;66.60
2363;DHT22;64265;51.664;7.626;2023-02-01T07:37:39;18.30;66.60
2363;DHT22;64265;51.664;7.626;2023-02-01T07:40:07;18.30;66.50
2363;DHT22;64265;51.664;7.626;2023-02-01T07:42:34;18.30;66.50
2363;DHT22;64265;51.664;7.626;2023-02-01T07:45:00;18.30;66.50
2363;DHT22;64265;51.664;7.626;2023-02-01T07:47:28;18.40;66.60
2363;DHT22;64265;51.664;7.626;2023-02-01T07:49:56;18.40;66.50
2363;DHT22;64265;51.664;7.626;2023-02-01T07:52:22;18.40;66.50
2363;DHT22;64265;51.664;7.626;2023-02-01T07:54:49;18.40;66.50
2363;DHT22;64265;51.664;7.626;2023-02-01T07:57:16;18.40;66.50
2363;DHT22;64265;51.664;7.626;2023-02-01T07:59:43;18.40;66.50
2363;DHT22;64265;51.664;7.626;2023-02-01T08:02:24;18.40;66.50
2363;DHT22;64265;51.664;7.626;2023-02-01T08:04:50;18.50;66.50
2363;DHT22;64265;51.664;7.626;2023-02-01T08:07:18;18.50;66.50
2363;DHT22;64265;51.664;7.626;2023-02-01T08:09:45;18.50;66.50
2363;DHT22;64265;51.664;7.626;2023-02-01T08:12:12;18.50;66.50
2363;DHT22;64265;51.664;7.626;2023-02-01T08:14:39;18.50;66.50
2363;DHT22;64265;51.664;7.626;2023-02-01T08:17:06;18.50;66.40
2363;DHT22;64265;51.664;7.626;2023-02-01T08:19:33;18.50;67.20
2363;DHT22;64265;51.664;7.626;2023-02-01T08:22:00;18.50;66.30
2363;DHT22;64265;51.664;7.626;2023-02-01T08:24:34;18.50;66.40
2363;DHT22;64265;51.664;7.626;2023-02-01T08:27:03;18.60;66.40
2363;DHT22;64265;51.664;7.626;2023-02-01T08:29:30;18.60;66.40
2363;DHT22;64265;51.664;7.626;2023-02-01T08:31:56;18.60;66.30
2363;DHT22;64265;51.664;7.626;2023-02-01T08:34:23;18.60;66.30
2363;DHT22;64265;51.664;7.626;2023-02-01T08:36:51;18.60;66.20
2363;DHT22;64265;51.664;7.626;2023-02-01T08:39:23;18.60;66.20
2363;DHT22;64265;51.664;7.626;2023-02-01T08:41:51;18.60;66.20
2363;DHT22;64265;51.664;7.626;2023-02-01T08:44:32;18.60;66.20
2363;DHT22;64265;51.664;7.626;2023-02-01T08:46:59;18.60;66.20
2363;DHT22;64265;51.664;7.626;2023-02-01T08:49:26;18.60;66.30
2363;DHT22;64265;51.664;7.626;2023-02-01T08:51:52;18.60;66.50
2363;DHT22;64265;51.664;7.626;2023-02-01T08:54:20;18.70;66.80
2363;DHT22;64265;51.664;7.626;2023-02-01T08:56:47;18.70;66.80
2363;DHT22;64265;51.664;7.626;2023-02-01T08:59:15;18.70;67.10
2363;DHT22;64265;51.664;7.626;2023-02-01T09:01:41;18.80;67.40
2363;DHT22;64265;51.664;7.626;2023-02-01T09:04:08;18.70;66.40
2363;DHT22;64265;51.664;7.626;2023-02-01T09:06:35;18.60;66.70
2363;DHT22;64265;51.664;7.626;2023-02-01T09:09:02;18.70;66.80
2363;DHT22;64265;51.664;7.626;2023-02-01T09:11:29;18.70;66.90
2363;DHT22;64265;51.664;7.626;2023-02-01T09:13:55;18.70;66.80
2363;DHT22;64265;51.664;7.626;2023-02-01T09:16:24;18.70;66.70
2363;DHT22;64265;51.664;7.626;2023-02-01T09:18:50;18.80;66.80
2363;DHT22;64265;51.664;7.626;2023-02-01T09:21:17;18.80;66.80
2363;DHT22;64265;51.664;7.626;2023-02-01T09:23:44;18.80;66.80
2363;DHT22;64265;51.664;7.626;2023-02-01T09:26:14;18.80;66.80
2363;DHT22;64265;51.664;7.626;2023-02-01T09:28:41;18.80;66.80
2363;DHT22;64265;51.664;7.626;2023-02-01T09:31:07;18.80;66.80
2363;DHT22;64265;51.664;7.626;2023-02-01T09:33:35;18.80;66.80
2363;DHT22;64265;51.664;7.626;2023-02-01T09:36:04;18.90;66.80
2363;DHT22;64265;51.664;7.626;2023-02-01T09:38:31;18.90;66.80
2363;DHT22;64265;51.664;7.626;2023-02-01T09:40:58;18.90;66.80
2363;DHT22;64265;51.664;7.626;2023-02-01T09:43:36;18.90;66.70
2363;DHT22;64265;51.664;7.626;2023-02-01T09:46:19;18.90;66.80
2363;DHT22;64265;51.664;7.626;2023-02-01T09:48:57;18.90;66.70
2363;DHT22;64265;51.664;7.626;2023-02-01T09:51:28;18.90;66.70
2363;DHT22;64265;51.664;7.626;2023-02-01T09:54:01;18.90;66.60
2363;DHT22;64265;51.664;7.626;2023-02-01T09:56:36;18.90;66.60
2363;DHT22;64265;51.664;7.626;2023-02-01T09:59:10;18.90;66.60
2363;DHT22;64265;51.664;7.626;2023-02-01T10:01:42;19.00;66.70
2363;DHT22;64265;51.664;7.626;2023-02-01T10:04:13;19.00;66.70
2363;DHT22;64265;51.664;7.626;2023-02-01T10:06:47;19.00;66.60
2363;DHT22;64265;51.664;7.626;2023-02-01T10:09:36;19.00;66.60
2363;DHT22;64265;51.664;7.626;2023-02-01T10:12:42;19.00;66.60
2363;DHT22;64265;51.664;7.626;2023-02-01T10:15:21;19.00;66.50
2363;DHT22;64265;51.664;7.626;2023-02-01T10:18:15;19.00;66.70
2363;DHT22;64265;51.664;7.626;2023-02-01T10:20:57;19.00;66.80
2363;DHT22;64265;51.664;7.626;2023-02-01T10:26:33;19.10;67.30
2363;DHT22;64265;51.664;7.626;2023-02-01T10:29:04;19.10;67.30
2363;DHT22;64265;51.664;7.626;2023-02-01T10:31:37;19.10;67.40
2363;DHT22;64265;51.664;7.626;2023-02-01T10:34:15;19.20;67.70
2363;DHT22;64265;51.664;7.626;2023-02-01T10:36:52;19.20;67.90
2363;DHT22;64265;51.664;7.626;2023-02-01T10:39:20;19.20;68.10
2363;DHT22;64265;51.664;7.626;2023-02-01T10:41:47;19.30;68.40
2363;DHT22;64265;51.664;7.626;2023-02-01T10:44:15;19.30;68.50
2363;DHT22;64265;51.664;7.626;2023-02-01T10:46:43;19.40;68.70
2363;DHT22;64265;51.664;7.626;2023-02-01T10:49:16;19.40;68.70
2363;DHT22;64265;51.664;7.626;2023-02-01T10:51:47;19.40;68.80
2363;DHT22;64265;51.664;7.626;2023-02-01T10:54:17;19.40;68.90
2363;DHT22;64265;51.664;7.626;2023-02-01T10:56:46;19.40;69.20
2363;DHT22;64265;51.664;7.626;2023-02-01T10:59:19;19.40;69.20
2363;DHT22;64265;51.664;7.626;2023-02-01T11:01:49;19.50;69.50
2363;DHT22;64265;51.664;7.626;2023-02-01T11:04:16;19.50;69.50
2363;DHT22;64265;51.664;7.626;2023-02-01T11:06:47;19.50;69.50
2363;DHT22;64265;51.664;7.626;2023-02-01T11:09:21;19.50;69.50
2363;DHT22;64265;51.664;7.626;2023-02-01T11:11:59;19.60;69.70
2363;DHT22;64265;51.664;7.626;2023-02-01T11:14:38;19.60;69.50
2363;DHT22;64265;51.664;7.626;2023-02-01T11:17:21;19.60;69.50
2363;DHT22;64265;51.664;7.626;2023-02-01T11:19:57;19.60;69.60
2363;DHT22;64265;51.664;7.626;2023-02-01T11:22:26;19.60;69.50
2363;DHT22;64265;51.664;7.626;2023-02-01T11:24:55;19.60;69.40
2363;DHT22;64265;51.664;7.626;2023-02-01T11:27:24;19.60;70.20
2363;DHT22;64265;51.664;7.626;2023-02-01T11:29:53;19.50;67.50
2363;DHT22;64265;51.664;7.626;2023-02-01T11:32:22;19.30;65.00
2363;DHT22;64265;51.664;7.626;2023-02-01T11:34:52;19.00;62.60
2363;DHT22;64265;51.664;7.626;2023-02-01T11:37:23;18.80;60.20
2363;DHT22;64265;51.664;7.626;2023-02-01T11:39:56;18.70;60.20
2363;DHT22;64265;51.664;7.626;2023-02-01T11:42:24;18.70;60.00
2363;DHT22;64265;51.664;7.626;2023-02-01T11:45:16;18.60;59.70
2363;DHT22;64265;51.664;7.626;2023-02-01T11:47:43;18.80;60.70
2363;DHT22;64265;51.664;7.626;2023-02-01T11:50:15;19.00;61.40
2363;DHT22;64265;51.664;7.626;2023-02-01T11:52:52;19.20;61.80
2363;DHT22;64265;51.664;7.626;2023-02-01T11:55:39;19.30;62.30
2363;DHT22;64265;51.664;7.626;2023-02-01T11:58:26;19.40;62.70
2363;DHT22;64265;51.664;7.626;2023-02-01T12:01:11;19.40;62.90
2363;DHT22;64265;51.664;7.626;2023-02-01T12:04:00;19.50;63.30
2363;DHT22;64265;51.664;7.626;2023-02-01T12:06:39;19.50;63.40
2363;DHT22;64265;51.664;7.626;2023-02-01T12:09:25;19.60;63.70
2363;DHT22;64265;51.664;7.626;2023-02-01T12:12:01;19.60;63.90
2363;DHT22;64265;51.664;7.626;2023-02-01T12:14:43;19.70;64.10
2363;DHT22;64265;51.664;7.626;2023-02-01T12:17:34;19.70;64.30
2363;DHT22;64265;51.664;7.626;2023-02-01T12:20:18;19.70;64.40
2363;DHT22;64265;51.664;7.626;2023-02-01T12:22:59;19.70;64.60
2363;DHT22;64265;51.664;7.626;2023-02-01T12:25:40;19.80;64.80
2363;DHT22;64265;51.664;7.626;2023-02-01T12:28:41;19.80;64.90
2363;DHT22;64265;51.664;7.626;2023-02-01T12:31:32;19.80;65.00
2363;DHT22;64265;51.664;7.626;2023-02-01T12:34:30;19.80;65.10
2363;DHT22;64265;51.664;7.626;2023-02-01T12:37:07;19.90;65.40
2363;DHT22;64265;51.664;7.626;2023-02-01T12:39:39;19.90;65.40
2363;DHT22;64265;51.664;7.626;2023-02-01T12:42:11;19.90;65.50
2363;DHT22;64265;51.664;7.626;2023-02-01T12:44:47;19.90;65.50
2363;DHT22;64265;51.664;7.626;2023-02-01T12:47:21;19.90;65.60
2363;DHT22;64265;51.664;7.626;2023-02-01T12:49:54;19.90;66.10
2363;DHT22;64265;51.664;7.626;2023-02-01T12:52:27;19.90;66.00
2363;DHT22;64265;51.664;7.626;2023-02-01T12:55:07;19.90;66.10
2363;DHT22;64265;51.664;7.626;2023-02-01T12:57:38;19.90;66.40
2363;DHT22;64265;51.664;7.626;2023-02-01T13:00:19;20.00;66.50
2363;DHT22;64265;51.664;7.626;2023-02-01T13:02:54;20.00;66.50
2363;DHT22;64265;51.664;7.626;2023-02-01T13:05:27;20.00;66.50
2363;DHT22;64265;51.664;7.626;2023-02-01T13:07:58;20.00;66.50
2363;DHT22;64265;51.664;7.626;2023-02-01T13:10:31;20.00;66.50
2363;DHT22;64265;51.664;7.626;2023-02-01T13:13:08;20.10;66.70
2363;DHT22;64265;51.664;7.626;2023-02-01T13:15:41;20.10;66.70
2363;DHT22;64265;51.664;7.626;2023-02-01T13:18:14;20.10;66.70
2363;DHT22;64265;51.664;7.626;2023-02-01T13:20:47;20.10;66.70
2363;DHT22;64265;51.664;7.626;2023-02-01T13:23:19;20.10;66.80
2363;DHT22;64265;51.664;7.626;2023-02-01T13:25:50;20.10;66.70
2363;DHT22;64265;51.664;7.626;2023-02-01T13:28:24;20.10;66.50
2363;DHT22;64265;51.664;7.626;2023-02-01T13:37:18;20.10;66.60
2363;DHT22;64265;51.664;7.626;2023-02-01T13:39:59;20.00;66.40
2363;DHT22;64265;51.664;7.626;2023-02-01T13:42:34;20.00;66.40
2363;DHT22;64265;51.664;7.626;2023-02-01T13:45:12;20.00;66.40
2363;DHT22;64265;51.664;7.626;2023-02-01T13:47:43;20.00;66.50
2363;DHT22;64265;51.664;7.626;2023-02-01T13:50:18;20.10;66.60
2363;DHT22;64265;51.664;7.626;2023-02-01T13:52:52;20.10;66.70
2363;DHT22;64265;51.664;7.626;2023-02-01T13:55:30;20.00;66.10
2363;DHT22;64265;51.664;7.626;2023-02-01T13:58:06;19.80;65.30
2363;DHT22;64265;51.664;7.626;2023-02-01T14:00:38;19.90;65.70
2363;DHT22;64265;51.664;7.626;2023-02-01T14:03:16;19.90;65.80
2363;DHT22;64265;51.664;7.626;2023-02-01T14:06:14;19.90;65.90
2363;DHT22;64265;51.664;7.626;2023-02-01T14:08:44;19.90;66.00
2363;DHT22;64265;51.664;7.626;2023-02-01T14:11:33;19.90;66.00
2363;DHT22;64265;51.664;7.626;2023-02-01T14:14:39;19.90;66.00
2363;DHT22;64265;51.664;7.626;2023-02-01T14:17:36;19.90;66.00
2363;DHT22;64265;51.664;7.626;2023-02-01T14:23:21;19.80;65.90
2363;DHT22;64265;51.664;7.626;2023-02-01T14:26:11;19.80;66.00
2363;DHT22;64265;51.664;7.626;2023-02-01T14:28:43;19.80;66.00
2363;DHT22;64265;51.664;7.626;2023-02-01T14:31:38;19.80;65.90
2363;DHT22;64265;51.664;7.626;2023-02-01T14:34:13;19.80;66.00
2363;DHT22;64265;51.664;7.626;2023-02-01T14:36:44;19.70;65.80
2363;DHT22;64265;51.664;7.626;2023-02-01T14:39:30;19.70;65.80
2363;DHT22;64265;51.664;7.626;2023-02-01T14:42:01;19.70;65.80
2363;DHT22;64265;51.664;7.626;2023-02-01T14:44:35;19.70;65.80
2363;DHT22;64265;51.664;7.626;2023-02-01T14:50:30;19.70;65.80
2363;DHT22;64265;51.664;7.626;2023-02-01T14:55:59;19.70;65.90
2363;DHT22;64265;51.664;7.626;2023-02-01T14:58:35;19.70;65.90
2363;DHT22;64265;51.664;7.626;2023-02-01T15:01:04;19.70;65.90
2363;DHT22;64265;51.664;7.626;2023-02-01T15:03:43;19.70;65.90
2363;DHT22;64265;51.664;7.626;2023-02-01T15:09:09;19.70;65.80
2363;DHT22;64265;51.664;7.626;2023-02-01T15:12:00;19.70;65.90
2363;DHT22;64265;51.664;7.626;2023-02-01T15:14:30;19.70;65.80
2363;DHT22;64265;51.664;7.626;2023-02-01T15:16:57;19.70;65.80
2363;DHT22;64265;51.664;7.626;2023-02-01T15:19:26;19.70;65.80
2363;DHT22;64265;51.664;7.626;2023-02-01T15:21:54;19.70;65.80
2363;DHT22;64265;51.664;7.626;2023-02-01T15:24:24;19.70;65.80
2363;DHT22;64265;51.664;7.626;2023-02-01T15:26:51;19.70;65.80
2363;DHT22;64265;51.664;7.626;2023-02-01T15:29:21;19.70;65.80
2363;DHT22;64265;51.664;7.626;2023-02-01T15:31:51;19.70;65.80
2363;DHT22;64265;51.664;7.626;2023-02-01T15:34:19;19.70;65.80
2363;DHT22;64265;51.664;7.626;2023-02-01T15:36:47;19.70;65.80
2363;DHT22;64265;51.664;7.626;2023-02-01T15:39:20;19.70;65.80
2363;DHT22;64265;51.664;7.626;2023-02-01T15:41:50;19.70;65.80
2363;DHT22;64265;51.664;7.626;2023-02-01T15:44:21;19.70;65.80
2363;DHT22;64265;51.664;7.626;2023-02-01T15:46:51;19.70;65.80
2363;DHT22;64265;51.664;7.626;2023-02-01T15:49:22;19.60;65.70
2363;DHT22;64265;51.664;7.626;2023-02-01T15:51:50;19.60;65.70
2363;DHT22;64265;51.664;7.626;2023-02-01T15:54:19;19.60;65.70
2363;DHT22;64265;51.664;7.626;2023-02-01T15:56:51;19.60;65.70
2363;DHT22;64265;51.664;7.626;2023-02-01T15:59:23;19.60;65.70
2363;DHT22;64265;51.664;7.626;2023-02-01T16:01:51;19.60;65.80
2363;DHT22;64265;51.664;7.626;2023-02-01T16:04:20;19.60;65.70
2363;DHT22;64265;51.664;7.626;2023-02-01T16:06:50;19.60;65.70
2363;DHT22;64265;51.664;7.626;2023-02-01T16:09:18;19.60;65.70
2363;DHT22;64265;51.664;7.626;2023-02-01T16:11:53;19.60;65.80
2363;DHT22;64265;51.664;7.626;2023-02-01T16:14:22;19.60;65.80
2363;DHT22;64265;51.664;7.626;2023-02-01T16:16:50;19.60;65.80
2363;DHT22;64265;51.664;7.626;2023-02-01T16:19:17;19.50;65.70
2363;DHT22;64265;51.664;7.626;2023-02-01T16:21:44;19.50;65.70
2363;DHT22;64265;51.664;7.626;2023-02-01T16:24:11;19.50;65.70
2363;DHT22;64265;51.664;7.626;2023-02-01T16:26:38;19.50;65.70
2363;DHT22;64265;51.664;7.626;2023-02-01T16:29:07;19.50;65.70
2363;DHT22;64265;51.664;7.626;2023-02-01T16:31:36;19.50;65.70
2363;DHT22;64265;51.664;7.626;2023-02-01T16:34:05;19.50;65.70
2363;DHT22;64265;51.664;7.626;2023-02-01T16:36:32;19.50;65.70